sensor_id;sensor_type;location;lat;lon;timestamp;P1;durP1;ratioP1;P2;durP2;ratioP2
68910;SDS011;55953;51.650;-0.522;2023-03-23T00:02:25;19.40;;;3.10;;
68910;SDS011;55953;51.650;-0.522;2023-03-23T00:04:55;20.90;;;4.00;;
68910;SDS011;55953;51.650;-0.522;2023-03-23T00:07:23;15.50;;;2.30;;
68910;SDS011;55953;51.650;-0.522;2023-03-23T00:09:54;7.30;;;1.50;;
68910;SDS011;55953;51.650;-0.522;2023-03-23T00:12:27;7.20;;;1.40;;
68910;SDS011;55953;51.650;-0.522;2023-03-23T00:15:04;6.00;;;1.40;;
68910;SDS011;55953;51.650;-0.522;2023-03-23T00:17:34;6.40;;;1.00;;
68910;SDS011;55953;51.650;-0.522;2023-03-23T00:20:02;10.40;;;1.50;;
68910;SDS011;55953;51.650;-0.522;2023-03-23T00:22:31;8.30;;;1.30;;
68910;SDS011;55953;51.650;-0.522;2023-03-23T00:25:05;8.50;;;1.40;;
68910;SDS011;55953;51.650;-0.522;2023-03-23T00:27:32;5.70;;;1.00;;
68910;SDS011;55953;51.650;-0.522;2023-03-23T00:29:59;8.40;;;1.50;;
68910;SDS011;55953;51.650;-0.522;2023-03-23T00:32:26;9.70;;;1.70;;
68910;SDS011;55953;51.650;-0.522;2023-03-23T00:34:57;7.70;;;1.50;;
68910;SDS011;55953;51.650;-0.522;2023-03-23T00:37:25;8.00;;;1.30;;
68910;SDS011;55953;51.650;-0.522;2023-03-23T00:39:53;8.70;;;1.30;;
68910;SDS011;55953;51.650;-0.522;2023-03-23T00:42:23;10.70;;;1.60;;
68910;SDS011;55953;51.650;-0.522;2023-03-23T00:44:51;6.30;;;1.70;;
68910;SDS011;55953;51.650;-0.522;2023-03-23T00:47:27;7.90;;;1.60;;
68910;SDS011;55953;51.650;-0.522;2023-03-23T00:49:54;6.80;;;1.10;;
68910;SDS011;55953;51.650;-0.522;2023-03-23T00:52:22;7.20;;;1.60;;
68910;SDS011;55953;51.650;-0.522;2023-03-23T00:54:50;7.40;;;1.70;;
68910;SDS011;55953;51.650;-0.522;2023-03-23T00:57:17;9.00;;;1.50;;
68910;SDS011;55953;51.650;-0.522;2023-03-23T00:59:44;11.00;;;1.80;;
68910;SDS011;55953;51.650;-0.522;2023-03-23T01:02:11;4.40;;;0.80;;
68910;SDS011;55953;51.650;-0.522;2023-03-23T01:04:39;11.60;;;1.80;;
68910;SDS011;55953;51.650;-0.522;2023-03-23T01:07:06;7.40;;;1.10;;
68910;SDS011;55953;51.650;-0.522;2023-03-23T01:09:34;5.40;;;1.10;;
68910;SDS011;55953;51.650;-0.522;2023-03-23T01:12:02;8.00;;;1.20;;
68910;SDS011;55953;51.650;-0.522;2023-03-23T01:14:32;6.80;;;1.30;;
68910;SDS011;55953;51.650;-0.522;2023-03-23T01:16:59;7.70;;;1.30;;
68910;SDS011;55953;51.650;-0.522;2023-03-23T01:19:26;4.60;;;1.40;;
68910;SDS011;55953;51.650;-0.522;2023-03-23T01:21:54;9.30;;;1.30;;
68910;SDS011;55953;51.650;-0.522;2023-03-23T01:24:21;7.60;;;1.50;;
68910;SDS011;55953;51.650;-0.522;2023-03-23T01:26:47;10.20;;;1.70;;
68910;SDS011;55953;51.650;-0.522;2023-03-23T01:29:14;8.90;;;1.50;;
68910;SDS011;55953;51.650;-0.522;2023-03-23T01:31:41;12.20;;;2.00;;
68910;SDS011;55953;51.650;-0.522;2023-03-23T01:34:10;9.40;;;1.50;;
68910;SDS011;55953;51.650;-0.522;2023-03-23T01:36:37;10.10;;;1.50;;
68910;SDS011;55953;51.650;-0.522;2023-03-23T01:39:05;9.10;;;1.60;;
68910;SDS011;55953;51.650;-0.522;2023-03-23T01:41:33;6.30;;;1.70;;
68910;SDS011;55953;51.650;-0.522;2023-03-23T01:44:59;10.40;;;2.00;;
68910;SDS011;55953;51.650;-0.522;2023-03-23T01:47:04;13.40;;;2.20;;
68910;SDS011;55953;51.650;-0.522;2023-03-23T01:49:34;7.90;;;1.30;;
68910;SDS011;55953;51.650;-0.522;2023-03-23T01:52:12;11.90;;;2.10;;
68910;SDS011;55953;51.650;-0.522;2023-03-23T01:54:45;12.70;;;2.30;;
68910;SDS011;55953;51.650;-0.522;2023-03-23T01:57:19;10.80;;;1.70;;
68910;SDS011;55953;51.650;-0.522;2023-03-23T01:59:51;11.00;;;1.80;;
68910;SDS011;55953;51.650;-0.522;2023-03-23T02:02:27;14.90;;;2.20;;
68910;SDS011;55953;51.650;-0.522;2023-03-23T02:04:58;12.20;;;2.00;;
68910;SDS011;55953;51.650;-0.522;2023-03-23T02:07:31;17.50;;;2.40;;
68910;SDS011;55953;51.650;-0.522;2023-03-23T02:09:58;8.00;;;2.00;;
68910;SDS011;55953;51.650;-0.522;2023-03-23T02:12:28;12.90;;;2.30;;
68910;SDS011;55953;51.650;-0.522;2023-03-23T02:14:55;9.20;;;2.00;;
68910;SDS011;55953;51.650;-0.522;2023-03-23T02:17:29;11.90;;;2.10;;
68910;SDS011;55953;51.650;-0.522;2023-03-23T02:20:43;16.20;;;2.10;;
68910;SDS011;55953;51.650;-0.522;2023-03-23T02:27:00;11.00;;;1.90;;
68910;SDS011;55953;51.650;-0.522;2023-03-23T02:35:42;16.40;;;2.90;;
68910;SDS011;55953;51.650;-0.522;2023-03-23T02:38:21;10.10;;;2.10;;
68910;SDS011;55953;51.650;-0.522;2023-03-23T02:40:55;17.20;;;2.70;;
68910;SDS011;55953;51.650;-0.522;2023-03-23T02:43:28;15.00;;;2.50;;
68910;SDS011;55953;51.650;-0.522;2023-03-23T02:46:00;17.30;;;2.80;;
68910;SDS011;55953;51.650;-0.522;2023-03-23T02:48:29;18.60;;;2.90;;
68910;SDS011;55953;51.650;-0.522;2023-03-23T02:50:58;19.40;;;3.10;;
68910;SDS011;55953;51.650;-0.522;2023-03-23T02:53:28;16.40;;;2.60;;
68910;SDS011;55953;51.650;-0.522;2023-03-23T02:55:57;22.20;;;3.10;;
68910;SDS011;55953;51.650;-0.522;2023-03-23T02:58:27;17.30;;;3.40;;
68910;SDS011;55953;51.650;-0.522;2023-03-23T03:00:55;16.70;;;2.90;;
68910;SDS011;55953;51.650;-0.522;2023-03-23T03:03:26;18.10;;;2.70;;
68910;SDS011;55953;51.650;-0.522;2023-03-23T03:06:23;16.40;;;2.40;;
68910;SDS011;55953;51.650;-0.522;2023-03-23T03:09:04;18.40;;;2.70;;
68910;SDS011;55953;51.650;-0.522;2023-03-23T03:11:43;18.50;;;2.80;;
68910;SDS011;55953;51.650;-0.522;2023-03-23T03:14:21;17.10;;;2.90;;
68910;SDS011;55953;51.650;-0.522;2023-03-23T03:17:23;32.20;;;3.40;;
68910;SDS011;55953;51.650;-0.522;2023-03-23T03:19:56;17.00;;;3.10;;
68910;SDS011;55953;51.650;-0.522;2023-03-23T03:22:28;15.00;;;2.60;;
68910;SDS011;55953;51.650;-0.522;2023-03-23T03:24:57;19.50;;;3.00;;
68910;SDS011;55953;51.650;-0.522;2023-03-23T03:27:27;24.10;;;3.50;;
68910;SDS011;55953;51.650;-0.522;2023-03-23T03:30:06;21.70;;;3.70;;
68910;SDS011;55953;51.650;-0.522;2023-03-23T03:32:44;19.50;;;2.50;;
68910;SDS011;55953;51.650;-0.522;2023-03-23T03:35:15;19.00;;;2.50;;
68910;SDS011;55953;51.650;-0.522;2023-03-23T03:37:43;19.70;;;2.50;;
68910;SDS011;55953;51.650;-0.522;2023-03-23T03:40:15;18.20;;;2.90;;
68910;SDS011;55953;51.650;-0.522;2023-03-23T03:42:44;17.20;;;2.70;;
68910;SDS011;55953;51.650;-0.522;2023-03-23T03:45:15;19.40;;;3.00;;
68910;SDS011;55953;51.650;-0.522;2023-03-23T03:47:44;16.80;;;2.50;;
68910;SDS011;55953;51.650;-0.522;2023-03-23T03:50:12;22.40;;;2.70;;
68910;SDS011;55953;51.650;-0.522;2023-03-23T03:52:39;20.50;;;3.10;;
68910;SDS011;55953;51.650;-0.522;2023-03-23T03:55:08;14.30;;;3.00;;
68910;SDS011;55953;51.650;-0.522;2023-03-23T03:57:38;12.80;;;3.10;;
68910;SDS011;55953;51.650;-0.522;2023-03-23T04:00:07;14.60;;;2.50;;
68910;SDS011;55953;51.650;-0.522;2023-03-23T04:02:46;19.70;;;2.70;;
68910;SDS011;55953;51.650;-0.522;2023-03-23T04:05:18;18.70;;;3.00;;
68910;SDS011;55953;51.650;-0.522;2023-03-23T04:07:48;13.90;;;2.40;;
68910;SDS011;55953;51.650;-0.522;2023-03-23T04:10:19;17.80;;;3.40;;
68910;SDS011;55953;51.650;-0.522;2023-03-23T04:12:49;16.40;;;3.50;;
68910;SDS011;55953;51.650;-0.522;2023-03-23T04:15:48;19.50;;;3.20;;
68910;SDS011;55953;51.650;-0.522;2023-03-23T04:18:16;14.60;;;2.50;;
68910;SDS011;55953;51.650;-0.522;2023-03-23T04:20:46;20.10;;;3.50;;
68910;SDS011;55953;51.650;-0.522;2023-03-23T04:23:20;19.00;;;2.30;;
68910;SDS011;55953;51.650;-0.522;2023-03-23T04:25:49;18.70;;;2.90;;
68910;SDS011;55953;51.650;-0.522;2023-03-23T04:28:18;11.70;;;2.10;;
68910;SDS011;55953;51.650;-0.522;2023-03-23T04:31:09;21.30;;;3.00;;
68910;SDS011;55953;51.650;-0.522;2023-03-23T04:33:41;19.90;;;2.60;;
68910;SDS011;55953;51.650;-0.522;2023-03-23T04:36:08;15.60;;;2.80;;
68910;SDS011;55953;51.650;-0.522;2023-03-23T04:38:38;18.70;;;2.40;;
68910;SDS011;55953;51.650;-0.522;2023-03-23T04:41:13;20.40;;;2.50;;
68910;SDS011;55953;51.650;-0.522;2023-03-23T04:43:54;14.50;;;2.50;;
68910;SDS011;55953;51.650;-0.522;2023-03-23T04:46:29;15.50;;;2.10;;
68910;SDS011;55953;51.650;-0.522;2023-03-23T04:48:59;18.60;;;3.60;;
68910;SDS011;55953;51.650;-0.522;2023-03-23T04:51:30;21.20;;;2.70;;
68910;SDS011;55953;51.650;-0.522;2023-03-23T04:54:03;21.00;;;3.20;;
68910;SDS011;55953;51.650;-0.522;2023-03-23T04:56:31;17.20;;;2.80;;
68910;SDS011;55953;51.650;-0.522;2023-03-23T04:59:02;22.00;;;2.50;;
68910;SDS011;55953;51.650;-0.522;2023-03-23T05:01:36;17.00;;;2.20;;
68910;SDS011;55953;51.650;-0.522;2023-03-23T05:04:15;16.20;;;2.80;;
68910;SDS011;55953;51.650;-0.522;2023-03-23T05:06:46;17.20;;;2.70;;
68910;SDS011;55953;51.650;-0.522;2023-03-23T05:09:18;17.70;;;3.20;;
68910;SDS011;55953;51.650;-0.522;2023-03-23T05:11:47;24.90;;;3.00;;
68910;SDS011;55953;51.650;-0.522;2023-03-23T05:14:13;19.70;;;2.40;;
68910;SDS011;55953;51.650;-0.522;2023-03-23T05:16:40;17.90;;;3.40;;
68910;SDS011;55953;51.650;-0.522;2023-03-23T05:19:07;16.30;;;2.60;;
68910;SDS011;55953;51.650;-0.522;2023-03-23T05:21:35;18.70;;;3.20;;
68910;SDS011;55953;51.650;-0.522;2023-03-23T05:24:04;20.80;;;2.50;;
68910;SDS011;55953;51.650;-0.522;2023-03-23T05:26:32;21.90;;;2.50;;
68910;SDS011;55953;51.650;-0.522;2023-03-23T05:29:04;21.80;;;2.00;;
68910;SDS011;55953;51.650;-0.522;2023-03-23T05:31:42;17.40;;;2.30;;
68910;SDS011;55953;51.650;-0.522;2023-03-23T05:34:09;18.30;;;2.40;;
68910;SDS011;55953;51.650;-0.522;2023-03-23T05:36:46;16.30;;;2.60;;
68910;SDS011;55953;51.650;-0.522;2023-03-23T05:39:32;21.20;;;2.50;;
68910;SDS011;55953;51.650;-0.522;2023-03-23T05:42:07;18.00;;;3.00;;
68910;SDS011;55953;51.650;-0.522;2023-03-23T05:45:05;17.60;;;2.30;;
68910;SDS011;55953;51.650;-0.522;2023-03-23T05:47:33;21.40;;;2.90;;
68910;SDS011;55953;51.650;-0.522;2023-03-23T05:50:05;22.60;;;2.80;;
68910;SDS011;55953;51.650;-0.522;2023-03-23T05:52:34;22.40;;;2.90;;
68910;SDS011;55953;51.650;-0.522;2023-03-23T05:55:05;21.60;;;4.40;;
68910;SDS011;55953;51.650;-0.522;2023-03-23T05:57:35;17.90;;;3.20;;
68910;SDS011;55953;51.650;-0.522;2023-03-23T06:00:06;24.20;;;3.10;;
68910;SDS011;55953;51.650;-0.522;2023-03-23T06:02:47;18.10;;;2.70;;
68910;SDS011;55953;51.650;-0.522;2023-03-23T06:05:19;17.70;;;2.60;;
68910;SDS011;55953;51.650;-0.522;2023-03-23T06:07:49;23.80;;;3.40;;
68910;SDS011;55953;51.650;-0.522;2023-03-23T06:10:16;21.80;;;3.30;;
68910;SDS011;55953;51.650;-0.522;2023-03-23T06:12:49;24.70;;;3.50;;
68910;SDS011;55953;51.650;-0.522;2023-03-23T06:15:26;21.00;;;3.20;;
68910;SDS011;55953;51.650;-0.522;2023-03-23T06:18:10;18.20;;;2.90;;
68910;SDS011;55953;51.650;-0.522;2023-03-23T06:20:48;23.40;;;3.50;;
68910;SDS011;55953;51.650;-0.522;2023-03-23T06:23:22;23.20;;;3.30;;
68910;SDS011;55953;51.650;-0.522;2023-03-23T06:25:56;23.10;;;3.60;;
68910;SDS011;55953;51.650;-0.522;2023-03-23T06:28:26;23.60;;;4.00;;
68910;SDS011;55953;51.650;-0.522;2023-03-23T06:30:53;28.30;;;3.40;;
68910;SDS011;55953;51.650;-0.522;2023-03-23T06:33:21;18.30;;;2.70;;
68910;SDS011;55953;51.650;-0.522;2023-03-23T06:36:08;25.40;;;3.10;;
68910;SDS011;55953;51.650;-0.522;2023-03-23T06:38:52;21.70;;;3.30;;
68910;SDS011;55953;51.650;-0.522;2023-03-23T06:41:23;25.40;;;3.10;;
68910;SDS011;55953;51.650;-0.522;2023-03-23T06:43:52;20.80;;;3.10;;
68910;SDS011;55953;51.650;-0.522;2023-03-23T06:46:24;23.50;;;3.20;;
68910;SDS011;55953;51.650;-0.522;2023-03-23T06:49:10;20.10;;;4.10;;
68910;SDS011;55953;51.650;-0.522;2023-03-23T06:51:44;22.90;;;3.30;;
68910;SDS011;55953;51.650;-0.522;2023-03-23T06:54:14;21.30;;;4.00;;
68910;SDS011;55953;51.650;-0.522;2023-03-23T06:56:41;22.80;;;3.10;;
68910;SDS011;55953;51.650;-0.522;2023-03-23T06:59:08;21.40;;;3.90;;
68910;SDS011;55953;51.650;-0.522;2023-03-23T07:01:36;25.10;;;3.90;;
68910;SDS011;55953;51.650;-0.522;2023-03-23T07:04:04;25.30;;;4.00;;
68910;SDS011;55953;51.650;-0.522;2023-03-23T07:06:40;19.90;;;2.80;;
68910;SDS011;55953;51.650;-0.522;2023-03-23T07:09:08;17.20;;;2.90;;
68910;SDS011;55953;51.650;-0.522;2023-03-23T07:11:36;19.80;;;3.20;;
68910;SDS011;55953;51.650;-0.522;2023-03-23T07:14:08;17.80;;;3.50;;
68910;SDS011;55953;51.650;-0.522;2023-03-23T07:16:35;23.60;;;3.30;;
68910;SDS011;55953;51.650;-0.522;2023-03-23T07:19:02;24.70;;;4.00;;
68910;SDS011;55953;51.650;-0.522;2023-03-23T07:21:29;20.70;;;3.40;;
68910;SDS011;55953;51.650;-0.522;2023-03-23T07:23:56;19.50;;;2.90;;
68910;SDS011;55953;51.650;-0.522;2023-03-23T07:26:45;22.50;;;2.90;;
68910;SDS011;55953;51.650;-0.522;2023-03-23T07:29:12;20.70;;;4.20;;
68910;SDS011;55953;51.650;-0.522;2023-03-23T07:31:43;18.60;;;3.30;;
68910;SDS011;55953;51.650;-0.522;2023-03-23T07:34:11;26.20;;;4.00;;
68910;SDS011;55953;51.650;-0.522;2023-03-23T07:36:57;22.60;;;4.40;;
68910;SDS011;55953;51.650;-0.522;2023-03-23T07:39:25;19.30;;;3.20;;
68910;SDS011;55953;51.650;-0.522;2023-03-23T07:41:53;20.70;;;3.90;;
68910;SDS011;55953;51.650;-0.522;2023-03-23T07:44:32;16.90;;;2.70;;
68910;SDS011;55953;51.650;-0.522;2023-03-23T07:47:06;29.40;;;3.70;;
68910;SDS011;55953;51.650;-0.522;2023-03-23T07:49:34;24.30;;;3.60;;
68910;SDS011;55953;51.650;-0.522;2023-03-23T07:52:21;21.90;;;3.50;;
68910;SDS011;55953;51.650;-0.522;2023-03-23T07:54:48;25.10;;;4.30;;
68910;SDS011;55953;51.650;-0.522;2023-03-23T07:57:37;21.90;;;3.60;;
68910;SDS011;55953;51.650;-0.522;2023-03-23T08:00:05;22.50;;;3.70;;
68910;SDS011;55953;51.650;-0.522;2023-03-23T08:02:42;22.90;;;3.40;;
68910;SDS011;55953;51.650;-0.522;2023-03-23T08:05:35;22.50;;;3.60;;
68910;SDS011;55953;51.650;-0.522;2023-03-23T08:08:31;19.20;;;3.10;;
68910;SDS011;55953;51.650;-0.522;2023-03-23T08:11:17;22.20;;;3.50;;
68910;SDS011;55953;51.650;-0.522;2023-03-23T08:14:08;52.50;;;5.60;;
68910;SDS011;55953;51.650;-0.522;2023-03-23T08:16:53;34.00;;;4.80;;
68910;SDS011;55953;51.650;-0.522;2023-03-23T08:19:45;35.90;;;4.30;;
68910;SDS011;55953;51.650;-0.522;2023-03-23T08:22:52;23.20;;;3.60;;
68910;SDS011;55953;51.650;-0.522;2023-03-23T08:25:51;20.00;;;2.60;;
68910;SDS011;55953;51.650;-0.522;2023-03-23T08:28:40;20.20;;;2.70;;
68910;SDS011;55953;51.650;-0.522;2023-03-23T08:31:21;20.80;;;3.30;;
68910;SDS011;55953;51.650;-0.522;2023-03-23T08:33:57;19.30;;;2.70;;
68910;SDS011;55953;51.650;-0.522;2023-03-23T08:36:24;16.30;;;2.80;;
68910;SDS011;55953;51.650;-0.522;2023-03-23T08:39:13;17.90;;;4.00;;
68910;SDS011;55953;51.650;-0.522;2023-03-23T08:41:59;13.70;;;2.40;;
68910;SDS011;55953;51.650;-0.522;2023-03-23T08:45:03;13.10;;;2.40;;
68910;SDS011;55953;51.650;-0.522;2023-03-23T08:48:05;15.90;;;2.40;;
68910;SDS011;55953;51.650;-0.522;2023-03-23T08:50:37;16.10;;;2.90;;
68910;SDS011;55953;51.650;-0.522;2023-03-23T08:53:16;17.90;;;2.80;;
68910;SDS011;55953;51.650;-0.522;2023-03-23T08:56:18;19.00;;;3.50;;
68910;SDS011;55953;51.650;-0.522;2023-03-23T08:59:14;17.00;;;3.00;;
68910;SDS011;55953;51.650;-0.522;2023-03-23T09:01:57;23.60;;;2.90;;
68910;SDS011;55953;51.650;-0.522;2023-03-23T09:04:36;17.90;;;3.00;;
68910;SDS011;55953;51.650;-0.522;2023-03-23T09:07:39;16.10;;;2.50;;
68910;SDS011;55953;51.650;-0.522;2023-03-23T09:10:08;13.60;;;3.00;;
68910;SDS011;55953;51.650;-0.522;2023-03-23T09:12:36;15.40;;;2.50;;
68910;SDS011;55953;51.650;-0.522;2023-03-23T09:15:04;19.00;;;3.00;;
68910;SDS011;55953;51.650;-0.522;2023-03-23T09:17:36;14.90;;;2.80;;
68910;SDS011;55953;51.650;-0.522;2023-03-23T09:20:06;21.00;;;3.40;;
68910;SDS011;55953;51.650;-0.522;2023-03-23T09:22:39;14.90;;;2.80;;
68910;SDS011;55953;51.650;-0.522;2023-03-23T09:25:09;17.60;;;2.50;;
68910;SDS011;55953;51.650;-0.522;2023-03-23T09:27:38;13.90;;;2.50;;
68910;SDS011;55953;51.650;-0.522;2023-03-23T09:30:08;15.70;;;3.00;;
68910;SDS011;55953;51.650;-0.522;2023-03-23T09:32:38;11.50;;;2.50;;
68910;SDS011;55953;51.650;-0.522;2023-03-23T09:35:07;18.20;;;3.00;;
68910;SDS011;55953;51.650;-0.522;2023-03-23T09:37:39;14.20;;;2.50;;
68910;SDS011;55953;51.650;-0.522;2023-03-23T09:40:12;14.60;;;2.90;;
68910;SDS011;55953;51.650;-0.522;2023-03-23T09:52:00;18.20;;;2.10;;
68910;SDS011;55953;51.650;-0.522;2023-03-23T09:54:37;13.40;;;2.40;;
68910;SDS011;55953;51.650;-0.522;2023-03-23T09:57:14;15.30;;;2.60;;
68910;SDS011;55953;51.650;-0.522;2023-03-23T10:00:03;11.30;;;2.10;;
68910;SDS011;55953;51.650;-0.522;2023-03-23T10:03:21;13.20;;;2.10;;
68910;SDS011;55953;51.650;-0.522;2023-03-23T10:05:52;14.70;;;2.50;;
68910;SDS011;55953;51.650;-0.522;2023-03-23T10:08:26;12.20;;;2.90;;
68910;SDS011;55953;51.650;-0.522;2023-03-23T10:14:08;13.30;;;2.20;;
68910;SDS011;55953;51.650;-0.522;2023-03-23T10:17:16;11.10;;;2.30;;
68910;SDS011;55953;51.650;-0.522;2023-03-23T10:23:14;18.70;;;2.50;;
68910;SDS011;55953;51.650;-0.522;2023-03-23T10:26:08;17.00;;;2.70;;
68910;SDS011;55953;51.650;-0.522;2023-03-23T10:29:21;11.60;;;2.20;;
68910;SDS011;55953;51.650;-0.522;2023-03-23T10:31:59;12.00;;;2.10;;
68910;SDS011;55953;51.650;-0.522;2023-03-23T10:37:30;11.80;;;2.20;;
68910;SDS011;55953;51.650;-0.522;2023-03-23T10:40:05;12.50;;;2.30;;
68910;SDS011;55953;51.650;-0.522;2023-03-23T10:42:41;13.70;;;2.60;;
68910;SDS011;55953;51.650;-0.522;2023-03-23T10:45:19;12.70;;;2.60;;
68910;SDS011;55953;51.650;-0.522;2023-03-23T10:47:54;16.50;;;2.60;;
68910;SDS011;55953;51.650;-0.522;2023-03-23T10:50:30;14.80;;;2.40;;
68910;SDS011;55953;51.650;-0.522;2023-03-23T10:53:00;19.50;;;2.60;;
68910;SDS011;55953;51.650;-0.522;2023-03-23T10:55:38;19.50;;;3.70;;
68910;SDS011;55953;51.650;-0.522;2023-03-23T10:58:10;14.70;;;2.80;;
68910;SDS011;55953;51.650;-0.522;2023-03-23T11:00:46;17.10;;;2.60;;
68910;SDS011;55953;51.650;-0.522;2023-03-23T11:05:48;16.20;;;3.20;;
68910;SDS011;55953;51.650;-0.522;2023-03-23T11:08:22;13.80;;;2.90;;
68910;SDS011;55953;51.650;-0.522;2023-03-23T11:13:59;13.90;;;2.60;;
68910;SDS011;55953;51.650;-0.522;2023-03-23T11:16:31;13.40;;;2.20;;
68910;SDS011;55953;51.650;-0.522;2023-03-23T11:19:14;13.70;;;2.60;;
68910;SDS011;55953;51.650;-0.522;2023-03-23T11:21:49;16.30;;;2.80;;
68910;SDS011;55953;51.650;-0.522;2023-03-23T11:24:18;18.60;;;3.10;;
68910;SDS011;55953;51.650;-0.522;2023-03-23T11:26:45;16.00;;;2.90;;
68910;SDS011;55953;51.650;-0.522;2023-03-23T11:29:16;18.60;;;3.60;;
68910;SDS011;55953;51.650;-0.522;2023-03-23T11:31:48;17.80;;;3.00;;
68910;SDS011;55953;51.650;-0.522;2023-03-23T11:34:42;15.50;;;2.80;;
68910;SDS011;55953;51.650;-0.522;2023-03-23T11:37:38;17.30;;;3.40;;
68910;SDS011;55953;51.650;-0.522;2023-03-23T11:42:43;14.30;;;3.20;;
68910;SDS011;55953;51.650;-0.522;2023-03-23T11:54:04;22.90;;;3.70;;
68910;SDS011;55953;51.650;-0.522;2023-03-23T11:56:56;14.60;;;2.50;;
68910;SDS011;55953;51.650;-0.522;2023-03-23T11:59:33;12.60;;;2.60;;
68910;SDS011;55953;51.650;-0.522;2023-03-23T12:05:39;17.00;;;2.60;;
68910;SDS011;55953;51.650;-0.522;2023-03-23T12:11:43;18.50;;;3.00;;
68910;SDS011;55953;51.650;-0.522;2023-03-23T12:14:29;18.20;;;3.40;;
68910;SDS011;55953;51.650;-0.522;2023-03-23T12:20:44;18.80;;;3.00;;
68910;SDS011;55953;51.650;-0.522;2023-03-23T12:23:25;17.40;;;2.60;;
68910;SDS011;55953;51.650;-0.522;2023-03-23T12:35:14;15.00;;;3.30;;
68910;SDS011;55953;51.650;-0.522;2023-03-23T12:44:41;17.70;;;2.50;;
68910;SDS011;55953;51.650;-0.522;2023-03-23T12:50:29;17.20;;;3.00;;
68910;SDS011;55953;51.650;-0.522;2023-03-23T12:53:17;14.60;;;2.30;;
68910;SDS011;55953;51.650;-0.522;2023-03-23T12:58:50;17.20;;;3.30;;
68910;SDS011;55953;51.650;-0.522;2023-03-23T13:01:28;14.10;;;2.90;;
68910;SDS011;55953;51.650;-0.522;2023-03-23T13:04:41;16.00;;;2.90;;
68910;SDS011;55953;51.650;-0.522;2023-03-23T13:07:17;14.90;;;2.40;;
68910;SDS011;55953;51.650;-0.522;2023-03-23T13:09:58;14.20;;;2.90;;
68910;SDS011;55953;51.650;-0.522;2023-03-23T13:12:31;20.10;;;3.30;;
68910;SDS011;55953;51.650;-0.522;2023-03-23T13:26:19;16.60;;;3.10;;
68910;SDS011;55953;51.650;-0.522;2023-03-23T13:31:30;18.80;;;3.30;;
68910;SDS011;55953;51.650;-0.522;2023-03-23T13:34:25;17.60;;;3.20;;
68910;SDS011;55953;51.650;-0.522;2023-03-23T13:37:03;20.50;;;3.50;;
68910;SDS011;55953;51.650;-0.522;2023-03-23T13:39:47;16.80;;;3.10;;
68910;SDS011;55953;51.650;-0.522;2023-03-23T13:42:48;19.10;;;3.60;;
68910;SDS011;55953;51.650;-0.522;2023-03-23T13:45:23;16.20;;;3.90;;
68910;SDS011;55953;51.650;-0.522;2023-03-23T13:48:04;17.00;;;3.10;;
68910;SDS011;55953;51.650;-0.522;2023-03-23T13:53:43;19.70;;;3.50;;
68910;SDS011;55953;51.650;-0.522;2023-03-23T13:56:21;17.60;;;3.20;;
68910;SDS011;55953;51.650;-0.522;2023-03-23T13:59:08;13.70;;;3.00;;
68910;SDS011;55953;51.650;-0.522;2023-03-23T14:04:16;17.80;;;3.30;;
68910;SDS011;55953;51.650;-0.522;2023-03-23T14:06:48;16.30;;;2.70;;
68910;SDS011;55953;51.650;-0.522;2023-03-23T14:09:30;18.00;;;2.80;;
68910;SDS011;55953;51.650;-0.522;2023-03-23T14:12:02;20.60;;;3.00;;
68910;SDS011;55953;51.650;-0.522;2023-03-23T14:14:45;15.30;;;3.00;;
68910;SDS011;55953;51.650;-0.522;2023-03-23T14:19:53;13.70;;;2.70;;
68910;SDS011;55953;51.650;-0.522;2023-03-23T14:22:28;17.80;;;3.20;;
68910;SDS011;55953;51.650;-0.522;2023-03-23T14:25:02;16.00;;;2.80;;
68910;SDS011;55953;51.650;-0.522;2023-03-23T14:27:36;21.10;;;3.20;;
68910;SDS011;55953;51.650;-0.522;2023-03-23T14:30:06;16.10;;;3.10;;
68910;SDS011;55953;51.650;-0.522;2023-03-23T14:32:39;16.70;;;3.80;;
68910;SDS011;55953;51.650;-0.522;2023-03-23T14:35:13;17.90;;;3.40;;
68910;SDS011;55953;51.650;-0.522;2023-03-23T14:37:56;17.20;;;3.20;;
68910;SDS011;55953;51.650;-0.522;2023-03-23T14:40:27;19.00;;;2.80;;
68910;SDS011;55953;51.650;-0.522;2023-03-23T14:45:24;18.20;;;3.10;;
68910;SDS011;55953;51.650;-0.522;2023-03-23T14:47:57;10.70;;;2.80;;
68910;SDS011;55953;51.650;-0.522;2023-03-23T14:53:31;20.30;;;4.50;;
68910;SDS011;55953;51.650;-0.522;2023-03-23T14:56:13;19.90;;;3.90;;
68910;SDS011;55953;51.650;-0.522;2023-03-23T14:58:45;20.90;;;3.40;;
68910;SDS011;55953;51.650;-0.522;2023-03-23T15:01:23;15.40;;;2.80;;
68910;SDS011;55953;51.650;-0.522;2023-03-23T15:06:29;18.60;;;3.20;;
68910;SDS011;55953;51.650;-0.522;2023-03-23T15:09:03;18.30;;;3.00;;
68910;SDS011;55953;51.650;-0.522;2023-03-23T15:11:38;14.20;;;2.90;;
68910;SDS011;55953;51.650;-0.522;2023-03-23T15:14:18;19.70;;;2.90;;
68910;SDS011;55953;51.650;-0.522;2023-03-23T15:16:55;19.00;;;3.20;;
68910;SDS011;55953;51.650;-0.522;2023-03-23T15:19:37;15.40;;;2.90;;
68910;SDS011;55953;51.650;-0.522;2023-03-23T15:22:24;20.20;;;3.80;;
68910;SDS011;55953;51.650;-0.522;2023-03-23T15:27:39;21.00;;;3.90;;
68910;SDS011;55953;51.650;-0.522;2023-03-23T15:30:29;18.60;;;3.10;;
68910;SDS011;55953;51.650;-0.522;2023-03-23T15:33:08;19.60;;;3.80;;
68910;SDS011;55953;51.650;-0.522;2023-03-23T15:35:45;16.00;;;3.00;;
68910;SDS011;55953;51.650;-0.522;2023-03-23T15:38:25;13.10;;;3.00;;
68910;SDS011;55953;51.650;-0.522;2023-03-23T15:40:59;22.50;;;4.30;;
68910;SDS011;55953;51.650;-0.522;2023-03-23T15:43:49;22.60;;;3.70;;
68910;SDS011;55953;51.650;-0.522;2023-03-23T15:46:26;19.60;;;3.40;;
68910;SDS011;55953;51.650;-0.522;2023-03-23T15:51:27;15.60;;;3.30;;
68910;SDS011;55953;51.650;-0.522;2023-03-23T15:53:56;19.70;;;3.40;;
68910;SDS011;55953;51.650;-0.522;2023-03-23T15:56:24;15.90;;;3.30;;
68910;SDS011;55953;51.650;-0.522;2023-03-23T15:58:52;17.80;;;3.40;;
68910;SDS011;55953;51.650;-0.522;2023-03-23T16:01:24;13.80;;;3.20;;
68910;SDS011;55953;51.650;-0.522;2023-03-23T16:04:07;14.30;;;2.50;;
68910;SDS011;55953;51.650;-0.522;2023-03-23T16:06:38;17.90;;;3.20;;
68910;SDS011;55953;51.650;-0.522;2023-03-23T16:09:07;21.70;;;3.60;;
68910;SDS011;55953;51.650;-0.522;2023-03-23T16:11:39;21.60;;;3.50;;
68910;SDS011;55953;51.650;-0.522;2023-03-23T16:14:08;22.50;;;3.40;;
68910;SDS011;55953;51.650;-0.522;2023-03-23T16:16:49;14.40;;;2.80;;
68910;SDS011;55953;51.650;-0.522;2023-03-23T16:19:19;17.70;;;3.40;;
68910;SDS011;55953;51.650;-0.522;2023-03-23T16:24:18;21.20;;;3.80;;
68910;SDS011;55953;51.650;-0.522;2023-03-23T16:26:46;22.00;;;3.60;;
68910;SDS011;55953;51.650;-0.522;2023-03-23T16:29:15;16.30;;;3.40;;
68910;SDS011;55953;51.650;-0.522;2023-03-23T16:32:04;15.80;;;3.80;;
68910;SDS011;55953;51.650;-0.522;2023-03-23T16:37:04;14.30;;;2.60;;
68910;SDS011;55953;51.650;-0.522;2023-03-23T16:39:33;19.20;;;3.20;;
68910;SDS011;55953;51.650;-0.522;2023-03-23T16:42:01;17.50;;;3.40;;
68910;SDS011;55953;51.650;-0.522;2023-03-23T16:44:29;13.80;;;2.80;;
68910;SDS011;55953;51.650;-0.522;2023-03-23T16:46:57;12.20;;;2.60;;
68910;SDS011;55953;51.650;-0.522;2023-03-23T16:49:25;14.20;;;2.90;;
68910;SDS011;55953;51.650;-0.522;2023-03-23T16:51:52;21.40;;;4.40;;
68910;SDS011;55953;51.650;-0.522;2023-03-23T16:54:20;16.80;;;3.40;;
68910;SDS011;55953;51.650;-0.522;2023-03-23T16:56:48;17.40;;;3.50;;
68910;SDS011;55953;51.650;-0.522;2023-03-23T16:59:16;16.90;;;2.80;;
68910;SDS011;55953;51.650;-0.522;2023-03-23T17:01:44;17.30;;;3.00;;
68910;SDS011;55953;51.650;-0.522;2023-03-23T17:04:12;15.30;;;3.20;;
68910;SDS011;55953;51.650;-0.522;2023-03-23T17:06:42;13.10;;;2.90;;
68910;SDS011;55953;51.650;-0.522;2023-03-23T17:09:10;13.00;;;2.90;;